Alps, New York
Current Conditions -  °F | °C
As of 9:58 AM on Friday 31 Oct 2014 (Local Time) from KALB Reporting Station
Broken Clouds Broken Clouds  
Wind Chill: 38°   Ceiling: 25000
Heat Index: 38°   Visibility: 10mi
Dew Point: 36°   Wind: 3mph
Humidity: 93%   Direction: 340°NNW
Pressure: 30.06"   Gusts: NA
Location:  42.6497°N, 73.5273°W
Report Text: KALB 311358Z 34003KT 10SM R01/3500VP6000FT SCT002 SCT040 BKN250 03/02 A3006 RMK AO2 T00330022
Loading
Personal Weather Stations






























Interactive Weather Map
Tropical Storm Tracking
New forecast layout! Learn more

10-Day Weather Forecast

Advertisements
Track Severe Weather on mobile